Webbville, Kentucky
Current Conditions -  °F | °C
As of 5:51 PM on Friday 19 Dec 2014 (Local Time) from KHTS Reporting Station
Overcast Overcast  
Wind Chill: 31°   Ceiling: 2500
Heat Index: 31°   Visibility: 10mi
Dew Point: 22°   Wind: 3mph
Humidity: 69%   Direction: 30°NNE
Pressure: 30.27"   Gusts: NA
Location:  38.18°N, 82.87°W
Report Text: KHTS 192251Z 03003KT 10SM OVC025 M01/M06 A3027 RMK AO2 SLP259 T10061056
Loading
Personal Weather Stations






























Interactive Weather Map New forecast layout! Learn more

10-Day Weather Forecast

Advertisements
Track Severe Weather on mobile